sensor_id;sensor_type;location;lat;lon;timestamp;P1;durP1;ratioP1;P2;durP2;ratioP2
6667;SDS011;3370;47.712;9.082;2023-04-15T00:01:21;6.07;;;2.57;;
6667;SDS011;3370;47.712;9.082;2023-04-15T00:03:49;3.00;;;2.70;;
6667;SDS011;3370;47.712;9.082;2023-04-15T00:06:17;2.90;;;2.60;;
6667;SDS011;3370;47.712;9.082;2023-04-15T00:08:43;9.48;;;2.85;;
6667;SDS011;3370;47.712;9.082;2023-04-15T00:11:10;4.60;;;2.53;;
6667;SDS011;3370;47.712;9.082;2023-04-15T00:13:36;5.77;;;2.37;;
6667;SDS011;3370;47.712;9.082;2023-04-15T00:16:03;8.53;;;3.40;;
6667;SDS011;3370;47.712;9.082;2023-04-15T00:18:32;2.50;;;2.30;;
6667;SDS011;3370;47.712;9.082;2023-04-15T00:20:58;4.70;;;2.77;;
6667;SDS011;3370;47.712;9.082;2023-04-15T00:23:24;3.53;;;2.80;;
6667;SDS011;3370;47.712;9.082;2023-04-15T00:25:50;3.60;;;2.60;;
6667;SDS011;3370;47.712;9.082;2023-04-15T00:28:16;3.47;;;2.43;;
6667;SDS011;3370;47.712;9.082;2023-04-15T00:30:42;4.70;;;2.73;;
6667;SDS011;3370;47.712;9.082;2023-04-15T00:33:08;3.40;;;2.73;;
6667;SDS011;3370;47.712;9.082;2023-04-15T00:35:34;3.47;;;2.23;;
6667;SDS011;3370;47.712;9.082;2023-04-15T00:38:01;6.38;;;3.30;;
6667;SDS011;3370;47.712;9.082;2023-04-15T00:40:28;7.77;;;4.20;;
6667;SDS011;3370;47.712;9.082;2023-04-15T00:42:54;4.30;;;2.50;;
6667;SDS011;3370;47.712;9.082;2023-04-15T00:45:20;3.37;;;2.20;;
6667;SDS011;3370;47.712;9.082;2023-04-15T00:47:46;10.70;;;3.10;;
6667;SDS011;3370;47.712;9.082;2023-04-15T00:50:12;3.70;;;2.27;;
6667;SDS011;3370;47.712;9.082;2023-04-15T00:52:38;2.63;;;2.42;;
6667;SDS011;3370;47.712;9.082;2023-04-15T00:55:05;3.30;;;3.00;;
6667;SDS011;3370;47.712;9.082;2023-04-15T00:57:34;8.00;;;3.10;;
6667;SDS011;3370;47.712;9.082;2023-04-15T01:00:00;4.10;;;3.13;;
6667;SDS011;3370;47.712;9.082;2023-04-15T01:02:26;2.53;;;2.33;;
6667;SDS011;3370;47.712;9.082;2023-04-15T01:04:52;5.50;;;2.77;;
6667;SDS011;3370;47.712;9.082;2023-04-15T01:07:18;3.90;;;3.00;;
6667;SDS011;3370;47.712;9.082;2023-04-15T01:09:44;5.37;;;3.17;;
6667;SDS011;3370;47.712;9.082;2023-04-15T01:12:13;5.73;;;3.00;;
6667;SDS011;3370;47.712;9.082;2023-04-15T01:14:40;5.10;;;2.93;;
6667;SDS011;3370;47.712;9.082;2023-04-15T01:17:06;7.30;;;3.53;;
6667;SDS011;3370;47.712;9.082;2023-04-15T01:19:32;7.73;;;3.23;;
6667;SDS011;3370;47.712;9.082;2023-04-15T01:22:01;4.10;;;3.27;;
6667;SDS011;3370;47.712;9.082;2023-04-15T01:24:27;3.50;;;3.20;;
6667;SDS011;3370;47.712;9.082;2023-04-15T01:26:57;6.67;;;3.00;;
6667;SDS011;3370;47.712;9.082;2023-04-15T01:29:23;5.57;;;2.90;;
6667;SDS011;3370;47.712;9.082;2023-04-15T01:31:50;3.28;;;2.92;;
6667;SDS011;3370;47.712;9.082;2023-04-15T01:34:16;6.30;;;2.77;;
6667;SDS011;3370;47.712;9.082;2023-04-15T01:36:42;3.70;;;3.20;;
6667;SDS011;3370;47.712;9.082;2023-04-15T01:39:08;5.67;;;3.30;;
6667;SDS011;3370;47.712;9.082;2023-04-15T01:41:34;3.10;;;2.57;;
6667;SDS011;3370;47.712;9.082;2023-04-15T01:44:00;2.90;;;2.70;;
6667;SDS011;3370;47.712;9.082;2023-04-15T01:46:26;4.67;;;3.60;;
6667;SDS011;3370;47.712;9.082;2023-04-15T01:48:52;7.27;;;3.03;;
6667;SDS011;3370;47.712;9.082;2023-04-15T01:51:17;4.23;;;2.90;;
6667;SDS011;3370;47.712;9.082;2023-04-15T01:53:43;5.67;;;3.80;;
6667;SDS011;3370;47.712;9.082;2023-04-15T01:56:10;3.47;;;3.10;;
6667;SDS011;3370;47.712;9.082;2023-04-15T01:58:35;4.70;;;3.40;;
6667;SDS011;3370;47.712;9.082;2023-04-15T02:01:01;3.73;;;3.10;;
6667;SDS011;3370;47.712;9.082;2023-04-15T02:03:28;5.50;;;3.33;;
6667;SDS011;3370;47.712;9.082;2023-04-15T02:05:54;4.30;;;3.77;;
6667;SDS011;3370;47.712;9.082;2023-04-15T02:08:20;3.30;;;2.90;;
6667;SDS011;3370;47.712;9.082;2023-04-15T02:10:46;3.37;;;2.90;;
6667;SDS011;3370;47.712;9.082;2023-04-15T02:13:12;6.10;;;3.20;;
6667;SDS011;3370;47.712;9.082;2023-04-15T02:15:38;5.03;;;3.08;;
6667;SDS011;3370;47.712;9.082;2023-04-15T02:18:04;6.68;;;3.85;;
6667;SDS011;3370;47.712;9.082;2023-04-15T02:20:30;5.30;;;3.60;;
6667;SDS011;3370;47.712;9.082;2023-04-15T02:22:56;3.10;;;2.80;;
6667;SDS011;3370;47.712;9.082;2023-04-15T02:25:22;6.20;;;3.03;;
6667;SDS011;3370;47.712;9.082;2023-04-15T02:27:47;5.33;;;3.20;;
6667;SDS011;3370;47.712;9.082;2023-04-15T02:30:14;6.10;;;2.93;;
6667;SDS011;3370;47.712;9.082;2023-04-15T02:32:40;3.70;;;3.35;;
6667;SDS011;3370;47.712;9.082;2023-04-15T02:35:08;6.40;;;3.33;;
6667;SDS011;3370;47.712;9.082;2023-04-15T02:37:35;3.60;;;2.87;;
6667;SDS011;3370;47.712;9.082;2023-04-15T02:40:05;7.70;;;3.30;;
6667;SDS011;3370;47.712;9.082;2023-04-15T02:42:40;6.23;;;3.27;;
6667;SDS011;3370;47.712;9.082;2023-04-15T02:45:06;3.23;;;2.90;;
6667;SDS011;3370;47.712;9.082;2023-04-15T02:47:33;4.07;;;3.03;;
6667;SDS011;3370;47.712;9.082;2023-04-15T02:50:01;4.67;;;3.17;;
6667;SDS011;3370;47.712;9.082;2023-04-15T02:52:33;5.93;;;3.50;;
6667;SDS011;3370;47.712;9.082;2023-04-15T02:54:58;3.20;;;3.00;;
6667;SDS011;3370;47.712;9.082;2023-04-15T02:57:26;6.13;;;4.07;;
6667;SDS011;3370;47.712;9.082;2023-04-15T02:59:55;6.55;;;3.72;;
6667;SDS011;3370;47.712;9.082;2023-04-15T03:02:21;7.40;;;3.97;;
6667;SDS011;3370;47.712;9.082;2023-04-15T03:04:47;6.70;;;4.23;;
6667;SDS011;3370;47.712;9.082;2023-04-15T03:07:13;3.67;;;3.37;;
6667;SDS011;3370;47.712;9.082;2023-04-15T03:09:38;7.67;;;4.47;;
6667;SDS011;3370;47.712;9.082;2023-04-15T03:12:05;8.57;;;4.10;;
6667;SDS011;3370;47.712;9.082;2023-04-15T03:14:31;3.77;;;3.47;;
6667;SDS011;3370;47.712;9.082;2023-04-15T03:16:57;10.23;;;3.47;;
6667;SDS011;3370;47.712;9.082;2023-04-15T03:19:23;5.60;;;4.23;;
6667;SDS011;3370;47.712;9.082;2023-04-15T03:21:50;4.03;;;2.97;;
6667;SDS011;3370;47.712;9.082;2023-04-15T03:24:16;4.07;;;3.33;;
6667;SDS011;3370;47.712;9.082;2023-04-15T03:26:42;4.93;;;3.03;;
6667;SDS011;3370;47.712;9.082;2023-04-15T03:29:08;6.00;;;3.20;;
6667;SDS011;3370;47.712;9.082;2023-04-15T03:31:34;9.47;;;4.07;;
6667;SDS011;3370;47.712;9.082;2023-04-15T03:33:59;5.13;;;2.90;;
6667;SDS011;3370;47.712;9.082;2023-04-15T03:36:25;8.33;;;3.70;;
6667;SDS011;3370;47.712;9.082;2023-04-15T03:38:56;4.80;;;3.50;;
6667;SDS011;3370;47.712;9.082;2023-04-15T03:41:23;4.00;;;3.60;;
6667;SDS011;3370;47.712;9.082;2023-04-15T03:43:49;6.32;;;4.05;;
6667;SDS011;3370;47.712;9.082;2023-04-15T03:46:16;4.10;;;3.70;;
6667;SDS011;3370;47.712;9.082;2023-04-15T03:48:42;5.07;;;3.80;;
6667;SDS011;3370;47.712;9.082;2023-04-15T03:51:08;5.47;;;3.30;;
6667;SDS011;3370;47.712;9.082;2023-04-15T03:53:34;6.87;;;3.13;;
6667;SDS011;3370;47.712;9.082;2023-04-15T03:56:00;5.70;;;3.23;;
6667;SDS011;3370;47.712;9.082;2023-04-15T03:58:26;4.43;;;3.97;;
6667;SDS011;3370;47.712;9.082;2023-04-15T04:00:52;5.37;;;3.63;;
6667;SDS011;3370;47.712;9.082;2023-04-15T04:03:18;4.90;;;3.67;;
6667;SDS011;3370;47.712;9.082;2023-04-15T04:05:44;4.50;;;3.20;;
6667;SDS011;3370;47.712;9.082;2023-04-15T04:08:10;6.85;;;3.33;;
6667;SDS011;3370;47.712;9.082;2023-04-15T04:10:37;11.10;;;4.00;;
6667;SDS011;3370;47.712;9.082;2023-04-15T04:13:04;5.37;;;3.40;;
6667;SDS011;3370;47.712;9.082;2023-04-15T04:15:30;9.63;;;4.87;;
6667;SDS011;3370;47.712;9.082;2023-04-15T04:17:55;3.80;;;3.50;;
6667;SDS011;3370;47.712;9.082;2023-04-15T04:20:21;5.60;;;3.50;;
6667;SDS011;3370;47.712;9.082;2023-04-15T04:22:47;6.70;;;4.03;;
6667;SDS011;3370;47.712;9.082;2023-04-15T04:25:13;4.77;;;3.67;;
6667;SDS011;3370;47.712;9.082;2023-04-15T04:27:40;9.20;;;4.00;;
6667;SDS011;3370;47.712;9.082;2023-04-15T04:30:06;6.23;;;3.50;;
6667;SDS011;3370;47.712;9.082;2023-04-15T04:32:32;3.77;;;3.40;;
6667;SDS011;3370;47.712;9.082;2023-04-15T04:34:58;6.30;;;4.13;;
6667;SDS011;3370;47.712;9.082;2023-04-15T04:37:24;6.77;;;3.63;;
6667;SDS011;3370;47.712;9.082;2023-04-15T04:39:50;5.77;;;3.90;;
6667;SDS011;3370;47.712;9.082;2023-04-15T04:42:16;5.17;;;3.80;;
6667;SDS011;3370;47.712;9.082;2023-04-15T04:44:42;5.03;;;3.47;;
6667;SDS011;3370;47.712;9.082;2023-04-15T04:47:07;4.00;;;3.17;;
6667;SDS011;3370;47.712;9.082;2023-04-15T04:49:33;6.23;;;3.13;;
6667;SDS011;3370;47.712;9.082;2023-04-15T04:51:59;5.75;;;3.42;;
6667;SDS011;3370;47.712;9.082;2023-04-15T04:54:25;7.15;;;3.80;;
6667;SDS011;3370;47.712;9.082;2023-04-15T04:56:51;11.70;;;4.07;;
6667;SDS011;3370;47.712;9.082;2023-04-15T04:59:17;4.77;;;4.23;;
6667;SDS011;3370;47.712;9.082;2023-04-15T05:01:43;9.07;;;3.73;;
6667;SDS011;3370;47.712;9.082;2023-04-15T05:04:09;4.17;;;3.87;;
6667;SDS011;3370;47.712;9.082;2023-04-15T05:06:35;4.37;;;3.97;;
6667;SDS011;3370;47.712;9.082;2023-04-15T05:09:01;5.33;;;3.60;;
6667;SDS011;3370;47.712;9.082;2023-04-15T05:11:27;12.23;;;4.00;;
6667;SDS011;3370;47.712;9.082;2023-04-15T05:13:53;5.27;;;3.97;;
6667;SDS011;3370;47.712;9.082;2023-04-15T05:16:19;8.27;;;3.83;;
6667;SDS011;3370;47.712;9.082;2023-04-15T05:18:46;5.53;;;5.00;;
6667;SDS011;3370;47.712;9.082;2023-04-15T05:21:11;10.23;;;4.77;;
6667;SDS011;3370;47.712;9.082;2023-04-15T05:23:37;9.00;;;4.77;;
6667;SDS011;3370;47.712;9.082;2023-04-15T05:26:03;5.90;;;4.63;;
6667;SDS011;3370;47.712;9.082;2023-04-15T05:28:29;6.20;;;4.03;;
6667;SDS011;3370;47.712;9.082;2023-04-15T05:30:55;5.07;;;4.13;;
6667;SDS011;3370;47.712;9.082;2023-04-15T05:33:21;4.57;;;3.90;;
6667;SDS011;3370;47.712;9.082;2023-04-15T05:35:47;6.17;;;3.77;;
6667;SDS011;3370;47.712;9.082;2023-04-15T05:38:13;5.97;;;4.03;;
6667;SDS011;3370;47.712;9.082;2023-04-15T05:40:38;8.57;;;4.10;;
6667;SDS011;3370;47.712;9.082;2023-04-15T05:43:04;22.25;;;4.40;;
6667;SDS011;3370;47.712;9.082;2023-04-15T05:45:30;9.20;;;4.60;;
6667;SDS011;3370;47.712;9.082;2023-04-15T05:47:56;7.82;;;4.38;;
6667;SDS011;3370;47.712;9.082;2023-04-15T05:50:22;6.43;;;4.17;;
6667;SDS011;3370;47.712;9.082;2023-04-15T05:52:47;6.00;;;4.50;;
6667;SDS011;3370;47.712;9.082;2023-04-15T05:55:13;7.37;;;5.23;;
6667;SDS011;3370;47.712;9.082;2023-04-15T05:57:39;7.85;;;4.35;;
6667;SDS011;3370;47.712;9.082;2023-04-15T06:00:05;5.30;;;4.10;;
6667;SDS011;3370;47.712;9.082;2023-04-15T06:02:32;4.83;;;4.33;;
6667;SDS011;3370;47.712;9.082;2023-04-15T06:04:57;11.37;;;4.80;;
6667;SDS011;3370;47.712;9.082;2023-04-15T06:07:23;8.82;;;4.20;;
6667;SDS011;3370;47.712;9.082;2023-04-15T06:09:49;5.50;;;3.93;;
6667;SDS011;3370;47.712;9.082;2023-04-15T06:12:15;10.13;;;4.50;;
6667;SDS011;3370;47.712;9.082;2023-04-15T06:14:41;8.13;;;4.27;;
6667;SDS011;3370;47.712;9.082;2023-04-15T06:17:07;5.37;;;4.23;;
6667;SDS011;3370;47.712;9.082;2023-04-15T06:19:33;8.30;;;5.40;;
6667;SDS011;3370;47.712;9.082;2023-04-15T06:22:00;5.60;;;4.70;;
6667;SDS011;3370;47.712;9.082;2023-04-15T06:24:27;7.67;;;5.37;;
6667;SDS011;3370;47.712;9.082;2023-04-15T06:26:53;6.55;;;5.15;;
6667;SDS011;3370;47.712;9.082;2023-04-15T06:29:19;7.23;;;5.33;;
6667;SDS011;3370;47.712;9.082;2023-04-15T06:31:48;5.97;;;5.03;;
6667;SDS011;3370;47.712;9.082;2023-04-15T06:34:14;11.38;;;5.78;;
6667;SDS011;3370;47.712;9.082;2023-04-15T06:36:39;6.83;;;4.90;;
6667;SDS011;3370;47.712;9.082;2023-04-15T06:39:05;9.50;;;4.70;;
6667;SDS011;3370;47.712;9.082;2023-04-15T06:41:31;11.93;;;5.53;;
6667;SDS011;3370;47.712;9.082;2023-04-15T06:43:57;6.87;;;4.93;;
6667;SDS011;3370;47.712;9.082;2023-04-15T06:46:22;6.80;;;5.00;;
6667;SDS011;3370;47.712;9.082;2023-04-15T06:48:48;6.10;;;5.40;;
6667;SDS011;3370;47.712;9.082;2023-04-15T06:51:14;10.07;;;5.27;;
6667;SDS011;3370;47.712;9.082;2023-04-15T06:53:40;9.73;;;5.33;;
6667;SDS011;3370;47.712;9.082;2023-04-15T06:56:07;5.28;;;4.65;;
6667;SDS011;3370;47.712;9.082;2023-04-15T06:58:33;7.63;;;5.60;;
6667;SDS011;3370;47.712;9.082;2023-04-15T07:00:59;9.47;;;4.80;;
6667;SDS011;3370;47.712;9.082;2023-04-15T07:03:25;5.40;;;4.50;;
6667;SDS011;3370;47.712;9.082;2023-04-15T07:05:51;11.73;;;5.50;;
6667;SDS011;3370;47.712;9.082;2023-04-15T07:08:18;7.00;;;5.03;;
6667;SDS011;3370;47.712;9.082;2023-04-15T07:10:45;7.75;;;4.82;;
6667;SDS011;3370;47.712;9.082;2023-04-15T07:13:11;6.00;;;5.30;;
6667;SDS011;3370;47.712;9.082;2023-04-15T07:15:37;11.47;;;5.30;;
6667;SDS011;3370;47.712;9.082;2023-04-15T07:18:03;6.77;;;5.10;;
6667;SDS011;3370;47.712;9.082;2023-04-15T07:20:29;13.52;;;5.22;;
6667;SDS011;3370;47.712;9.082;2023-04-15T07:22:55;6.30;;;5.03;;
6667;SDS011;3370;47.712;9.082;2023-04-15T07:25:21;10.80;;;5.93;;
6667;SDS011;3370;47.712;9.082;2023-04-15T07:27:47;7.73;;;5.17;;
6667;SDS011;3370;47.712;9.082;2023-04-15T07:30:13;5.23;;;4.73;;
6667;SDS011;3370;47.712;9.082;2023-04-15T07:32:38;8.60;;;5.38;;
6667;SDS011;3370;47.712;9.082;2023-04-15T07:35:05;7.65;;;5.38;;
6667;SDS011;3370;47.712;9.082;2023-04-15T07:37:32;9.85;;;4.97;;
6667;SDS011;3370;47.712;9.082;2023-04-15T07:39:58;9.70;;;5.03;;
6667;SDS011;3370;47.712;9.082;2023-04-15T07:42:23;9.10;;;5.40;;
6667;SDS011;3370;47.712;9.082;2023-04-15T07:44:50;11.07;;;5.07;;
6667;SDS011;3370;47.712;9.082;2023-04-15T07:47:16;6.60;;;5.03;;
6667;SDS011;3370;47.712;9.082;2023-04-15T07:49:42;8.57;;;5.37;;
6667;SDS011;3370;47.712;9.082;2023-04-15T07:52:08;10.77;;;5.60;;
6667;SDS011;3370;47.712;9.082;2023-04-15T07:54:34;7.40;;;5.27;;
6667;SDS011;3370;47.712;9.082;2023-04-15T07:57:00;6.07;;;5.00;;
6667;SDS011;3370;47.712;9.082;2023-04-15T07:59:27;10.67;;;5.30;;
6667;SDS011;3370;47.712;9.082;2023-04-15T08:01:55;5.95;;;5.43;;
6667;SDS011;3370;47.712;9.082;2023-04-15T08:04:21;7.20;;;5.60;;
6667;SDS011;3370;47.712;9.082;2023-04-15T08:06:47;8.97;;;4.97;;
6667;SDS011;3370;47.712;9.082;2023-04-15T08:09:14;8.40;;;5.40;;
6667;SDS011;3370;47.712;9.082;2023-04-15T08:11:40;6.47;;;5.30;;
6667;SDS011;3370;47.712;9.082;2023-04-15T08:14:06;7.35;;;5.07;;
6667;SDS011;3370;47.712;9.082;2023-04-15T08:16:32;6.57;;;4.93;;
6667;SDS011;3370;47.712;9.082;2023-04-15T08:18:58;6.53;;;5.30;;
6667;SDS011;3370;47.712;9.082;2023-04-15T08:21:24;6.10;;;4.37;;
6667;SDS011;3370;47.712;9.082;2023-04-15T08:23:51;10.43;;;4.73;;
6667;SDS011;3370;47.712;9.082;2023-04-15T08:26:18;7.37;;;4.97;;
6667;SDS011;3370;47.712;9.082;2023-04-15T08:28:45;7.67;;;4.97;;
6667;SDS011;3370;47.712;9.082;2023-04-15T08:31:12;5.77;;;5.27;;
6667;SDS011;3370;47.712;9.082;2023-04-15T08:33:39;9.90;;;5.35;;
6667;SDS011;3370;47.712;9.082;2023-04-15T08:36:05;21.40;;;5.23;;
6667;SDS011;3370;47.712;9.082;2023-04-15T08:38:31;8.53;;;5.73;;
6667;SDS011;3370;47.712;9.082;2023-04-15T08:40:58;7.77;;;5.27;;
6667;SDS011;3370;47.712;9.082;2023-04-15T08:43:30;6.63;;;5.47;;
6667;SDS011;3370;47.712;9.082;2023-04-15T08:45:59;12.63;;;5.80;;
6667;SDS011;3370;47.712;9.082;2023-04-15T08:48:27;8.50;;;5.17;;
6667;SDS011;3370;47.712;9.082;2023-04-15T08:50:56;6.87;;;4.77;;
6667;SDS011;3370;47.712;9.082;2023-04-15T08:53:23;6.85;;;4.57;;
6667;SDS011;3370;47.712;9.082;2023-04-15T08:55:50;6.20;;;4.70;;
6667;SDS011;3370;47.712;9.082;2023-04-15T08:58:19;6.10;;;4.77;;
6667;SDS011;3370;47.712;9.082;2023-04-15T09:00:44;5.90;;;4.80;;
6667;SDS011;3370;47.712;9.082;2023-04-15T09:03:10;6.10;;;4.70;;
6667;SDS011;3370;47.712;9.082;2023-04-15T09:05:37;6.53;;;4.70;;
6667;SDS011;3370;47.712;9.082;2023-04-15T09:08:03;7.73;;;4.47;;
6667;SDS011;3370;47.712;9.082;2023-04-15T09:10:30;7.77;;;4.50;;
6667;SDS011;3370;47.712;9.082;2023-04-15T09:12:56;5.87;;;4.70;;
6667;SDS011;3370;47.712;9.082;2023-04-15T09:15:26;8.13;;;4.57;;
6667;SDS011;3370;47.712;9.082;2023-04-15T09:17:53;7.65;;;4.25;;
6667;SDS011;3370;47.712;9.082;2023-04-15T09:20:20;4.67;;;3.67;;
6667;SDS011;3370;47.712;9.082;2023-04-15T09:22:47;6.90;;;4.50;;
6667;SDS011;3370;47.712;9.082;2023-04-15T09:27:49;7.43;;;4.43;;
6667;SDS011;3370;47.712;9.082;2023-04-15T09:30:15;9.50;;;4.07;;
6667;SDS011;3370;47.712;9.082;2023-04-15T09:32:48;7.00;;;4.53;;
6667;SDS011;3370;47.712;9.082;2023-04-15T09:35:23;4.20;;;3.53;;
6667;SDS011;3370;47.712;9.082;2023-04-15T09:37:51;5.63;;;3.70;;
6667;SDS011;3370;47.712;9.082;2023-04-15T09:40:32;7.03;;;3.43;;
6667;SDS011;3370;47.712;9.082;2023-04-15T09:43:04;4.83;;;2.90;;
6667;SDS011;3370;47.712;9.082;2023-04-15T09:45:31;2.78;;;2.13;;
6667;SDS011;3370;47.712;9.082;2023-04-15T09:47:59;3.20;;;2.40;;
6667;SDS011;3370;47.712;9.082;2023-04-15T09:50:48;4.30;;;2.57;;
6667;SDS011;3370;47.712;9.082;2023-04-15T09:53:18;6.50;;;2.83;;
6667;SDS011;3370;47.712;9.082;2023-04-15T09:58:17;3.77;;;2.63;;
6667;SDS011;3370;47.712;9.082;2023-04-15T10:00:51;4.30;;;2.43;;
6667;SDS011;3370;47.712;9.082;2023-04-15T10:03:25;6.10;;;2.93;;
6667;SDS011;3370;47.712;9.082;2023-04-15T10:05:58;4.10;;;2.40;;
6667;SDS011;3370;47.712;9.082;2023-04-15T10:08:26;2.60;;;2.40;;
6667;SDS011;3370;47.712;9.082;2023-04-15T10:10:55;4.77;;;2.30;;
6667;SDS011;3370;47.712;9.082;2023-04-15T10:13:25;7.37;;;2.77;;
6667;SDS011;3370;47.712;9.082;2023-04-15T10:18:25;4.00;;;2.80;;
6667;SDS011;3370;47.712;9.082;2023-04-15T10:20:53;5.67;;;2.57;;
6667;SDS011;3370;47.712;9.082;2023-04-15T10:23:22;2.90;;;2.70;;
6667;SDS011;3370;47.712;9.082;2023-04-15T10:25:50;6.90;;;2.47;;
6667;SDS011;3370;47.712;9.082;2023-04-15T10:28:20;4.23;;;2.60;;
6667;SDS011;3370;47.712;9.082;2023-04-15T10:30:49;5.10;;;3.00;;
6667;SDS011;3370;47.712;9.082;2023-04-15T10:33:16;3.50;;;2.80;;
6667;SDS011;3370;47.712;9.082;2023-04-15T10:35:48;3.00;;;2.70;;
6667;SDS011;3370;47.712;9.082;2023-04-15T10:41:13;7.30;;;3.20;;
6667;SDS011;3370;47.712;9.082;2023-04-15T10:44:03;4.10;;;3.20;;
6667;SDS011;3370;47.712;9.082;2023-04-15T10:46:43;5.90;;;3.23;;
6667;SDS011;3370;47.712;9.082;2023-04-15T10:49:13;9.43;;;3.67;;
6667;SDS011;3370;47.712;9.082;2023-04-15T10:51:52;3.90;;;3.10;;
6667;SDS011;3370;47.712;9.082;2023-04-15T10:56:52;4.73;;;3.53;;
6667;SDS011;3370;47.712;9.082;2023-04-15T10:59:58;6.13;;;3.40;;
6667;SDS011;3370;47.712;9.082;2023-04-15T11:05:16;9.00;;;3.73;;
6667;SDS011;3370;47.712;9.082;2023-04-15T11:12:38;5.57;;;3.43;;
6667;SDS011;3370;47.712;9.082;2023-04-15T11:17:56;11.20;;;3.17;;
6667;SDS011;3370;47.712;9.082;2023-04-15T11:20:53;5.97;;;3.37;;
6667;SDS011;3370;47.712;9.082;2023-04-15T11:23:32;9.23;;;3.70;;
6667;SDS011;3370;47.712;9.082;2023-04-15T11:26:00;7.20;;;4.37;;
6667;SDS011;3370;47.712;9.082;2023-04-15T11:28:31;4.90;;;2.80;;
6667;SDS011;3370;47.712;9.082;2023-04-15T11:30:57;4.03;;;3.00;;
6667;SDS011;3370;47.712;9.082;2023-04-15T11:33:29;4.97;;;2.93;;
6667;SDS011;3370;47.712;9.082;2023-04-15T11:35:55;3.20;;;2.80;;
6667;SDS011;3370;47.712;9.082;2023-04-15T11:38:21;5.20;;;3.20;;
6667;SDS011;3370;47.712;9.082;2023-04-15T11:40:47;17.27;;;3.63;;
6667;SDS011;3370;47.712;9.082;2023-04-15T11:43:16;4.30;;;3.27;;
6667;SDS011;3370;47.712;9.082;2023-04-15T11:45:49;3.60;;;3.00;;
6667;SDS011;3370;47.712;9.082;2023-04-15T11:48:26;5.80;;;3.00;;
6667;SDS011;3370;47.712;9.082;2023-04-15T11:58:47;10.23;;;3.80;;
6667;SDS011;3370;47.712;9.082;2023-04-15T12:01:17;5.70;;;3.67;;
6667;SDS011;3370;47.712;9.082;2023-04-15T12:03:44;4.20;;;2.43;;
6667;SDS011;3370;47.712;9.082;2023-04-15T12:06:18;4.60;;;2.20;;
6667;SDS011;3370;47.712;9.082;2023-04-15T12:16:53;5.27;;;2.60;;
6667;SDS011;3370;47.712;9.082;2023-04-15T12:19:27;5.73;;;2.70;;
6667;SDS011;3370;47.712;9.082;2023-04-15T12:22:03;3.70;;;2.30;;
6667;SDS011;3370;47.712;9.082;2023-04-15T12:24:35;17.20;;;3.07;;
6667;SDS011;3370;47.712;9.082;2023-04-15T12:27:02;5.53;;;2.67;;
6667;SDS011;3370;47.712;9.082;2023-04-15T12:29:35;5.13;;;2.37;;
6667;SDS011;3370;47.712;9.082;2023-04-15T12:32:10;5.60;;;2.77;;
6667;SDS011;3370;47.712;9.082;2023-04-15T12:34:48;5.27;;;2.90;;
6667;SDS011;3370;47.712;9.082;2023-04-15T12:37:16;5.93;;;3.20;;
6667;SDS011;3370;47.712;9.082;2023-04-15T12:39:43;3.00;;;2.57;;
6667;SDS011;3370;47.712;9.082;2023-04-15T12:42:11;3.67;;;2.00;;
6667;SDS011;3370;47.712;9.082;2023-04-15T12:44:39;3.67;;;2.60;;
6667;SDS011;3370;47.712;9.082;2023-04-15T12:47:07;2.90;;;2.53;;
6667;SDS011;3370;47.712;9.082;2023-04-15T12:49:35;4.60;;;2.30;;
6667;SDS011;3370;47.712;9.082;2023-04-15T12:52:01;11.02;;;2.97;;
6667;SDS011;3370;47.712;9.082;2023-04-15T12:54:29;5.07;;;3.08;;
6667;SDS011;3370;47.712;9.082;2023-04-15T12:56:55;4.27;;;2.20;;
6667;SDS011;3370;47.712;9.082;2023-04-15T12:59:22;4.90;;;2.60;;
6667;SDS011;3370;47.712;9.082;2023-04-15T13:01:49;3.43;;;2.20;;
6667;SDS011;3370;47.712;9.082;2023-04-15T13:04:16;11.73;;;2.22;;
6667;SDS011;3370;47.712;9.082;2023-04-15T13:06:43;7.53;;;3.00;;
6667;SDS011;3370;47.712;9.082;2023-04-15T13:09:08;10.93;;;3.10;;
6667;SDS011;3370;47.712;9.082;2023-04-15T13:11:34;5.33;;;2.83;;
6667;SDS011;3370;47.712;9.082;2023-04-15T13:14:01;5.83;;;2.33;;
6667;SDS011;3370;47.712;9.082;2023-04-15T13:16:28;5.00;;;2.77;;
6667;SDS011;3370;47.712;9.082;2023-04-15T13:18:56;6.30;;;2.85;;
6667;SDS011;3370;47.712;9.082;2023-04-15T13:21:25;7.63;;;2.83;;
6667;SDS011;3370;47.712;9.082;2023-04-15T13:23:52;4.47;;;2.47;;
6667;SDS011;3370;47.712;9.082;2023-04-15T13:26:19;9.95;;;2.97;;
6667;SDS011;3370;47.712;9.082;2023-04-15T13:28:45;5.37;;;3.40;;
6667;SDS011;3370;47.712;9.082;2023-04-15T13:31:11;5.17;;;2.77;;
6667;SDS011;3370;47.712;9.082;2023-04-15T13:33:37;5.50;;;2.30;;
6667;SDS011;3370;47.712;9.082;2023-04-15T13:36:03;2.37;;;1.90;;
6667;SDS011;3370;47.712;9.082;2023-04-15T13:38:29;2.77;;;1.50;;
6667;SDS011;3370;47.712;9.082;2023-04-15T13:40:55;5.67;;;2.20;;
6667;SDS011;3370;47.712;9.082;2023-04-15T13:43:21;3.53;;;2.33;;
6667;SDS011;3370;47.712;9.082;2023-04-15T13:45:47;2.43;;;1.73;;
6667;SDS011;3370;47.712;9.082;2023-04-15T13:48:13;3.97;;;2.00;;
6667;SDS011;3370;47.712;9.082;2023-04-15T13:50:39;4.18;;;1.77;;
6667;SDS011;3370;47.712;9.082;2023-04-15T13:53:09;1.65;;;1.55;;
6667;SDS011;3370;47.712;9.082;2023-04-15T13:55:35;1.70;;;1.47;;
6667;SDS011;3370;47.712;9.082;2023-04-15T13:58:05;4.17;;;1.90;;
6667;SDS011;3370;47.712;9.082;2023-04-15T14:00:35;4.13;;;2.00;;
6667;SDS011;3370;47.712;9.082;2023-04-15T14:03:01;2.00;;;1.80;;
6667;SDS011;3370;47.712;9.082;2023-04-15T14:05:27;3.90;;;2.00;;
6667;SDS011;3370;47.712;9.082;2023-04-15T14:07:52;3.03;;;1.63;;
6667;SDS011;3370;47.712;9.082;2023-04-15T14:10:18;3.43;;;1.97;;
6667;SDS011;3370;47.712;9.082;2023-04-15T14:12:44;2.92;;;1.95;;
6667;SDS011;3370;47.712;9.082;2023-04-15T14:15:10;5.97;;;2.07;;
6667;SDS011;3370;47.712;9.082;2023-04-15T14:17:36;5.00;;;2.40;;
6667;SDS011;3370;47.712;9.082;2023-04-15T14:20:02;4.43;;;1.70;;
6667;SDS011;3370;47.712;9.082;2023-04-15T14:22:30;3.23;;;1.93;;
6667;SDS011;3370;47.712;9.082;2023-04-15T14:24:56;5.70;;;2.30;;
6667;SDS011;3370;47.712;9.082;2023-04-15T14:27:22;4.63;;;2.30;;
6667;SDS011;3370;47.712;9.082;2023-04-15T14:29:48;5.97;;;1.77;;
6667;SDS011;3370;47.712;9.082;2023-04-15T14:32:14;3.53;;;1.70;;
6667;SDS011;3370;47.712;9.082;2023-04-15T14:34:40;3.00;;;1.90;;
6667;SDS011;3370;47.712;9.082;2023-04-15T14:37:06;2.20;;;1.50;;
6667;SDS011;3370;47.712;9.082;2023-04-15T14:39:32;3.13;;;1.60;;
6667;SDS011;3370;47.712;9.082;2023-04-15T14:41:57;2.83;;;1.77;;
6667;SDS011;3370;47.712;9.082;2023-04-15T14:44:23;3.97;;;2.30;;
6667;SDS011;3370;47.712;9.082;2023-04-15T14:46:49;5.20;;;1.83;;
6667;SDS011;3370;47.712;9.082;2023-04-15T14:49:16;2.07;;;1.77;;
6667;SDS011;3370;47.712;9.082;2023-04-15T14:51:41;2.13;;;1.80;;
6667;SDS011;3370;47.712;9.082;2023-04-15T14:54:07;4.13;;;1.90;;
6667;SDS011;3370;47.712;9.082;2023-04-15T14:56:33;4.60;;;2.13;;
6667;SDS011;3370;47.712;9.082;2023-04-15T14:58:59;2.80;;;1.60;;
6667;SDS011;3370;47.712;9.082;2023-04-15T15:01:25;2.33;;;2.13;;
6667;SDS011;3370;47.712;9.082;2023-04-15T15:03:51;8.40;;;3.30;;
6667;SDS011;3370;47.712;9.082;2023-04-15T15:06:17;2.70;;;2.13;;
6667;SDS011;3370;47.712;9.082;2023-04-15T15:08:44;5.30;;;2.25;;
6667;SDS011;3370;47.712;9.082;2023-04-15T15:11:10;5.07;;;2.28;;
6667;SDS011;3370;47.712;9.082;2023-04-15T15:13:36;4.60;;;2.17;;
6667;SDS011;3370;47.712;9.082;2023-04-15T15:16:02;2.53;;;2.33;;
6667;SDS011;3370;47.712;9.082;2023-04-15T15:18:28;5.60;;;2.07;;
6667;SDS011;3370;47.712;9.082;2023-04-15T15:20:54;3.90;;;2.37;;
6667;SDS011;3370;47.712;9.082;2023-04-15T15:23:20;3.70;;;2.27;;
6667;SDS011;3370;47.712;9.082;2023-04-15T15:25:46;5.20;;;2.20;;
6667;SDS011;3370;47.712;9.082;2023-04-15T15:28:11;4.37;;;2.33;;
6667;SDS011;3370;47.712;9.082;2023-04-15T15:30:37;3.13;;;2.67;;
6667;SDS011;3370;47.712;9.082;2023-04-15T15:33:03;6.20;;;2.50;;
6667;SDS011;3370;47.712;9.082;2023-04-15T15:35:29;3.77;;;2.37;;
6667;SDS011;3370;47.712;9.082;2023-04-15T15:37:54;4.07;;;2.20;;
6667;SDS011;3370;47.712;9.082;2023-04-15T15:40:20;3.13;;;2.30;;
6667;SDS011;3370;47.712;9.082;2023-04-15T15:42:46;4.05;;;2.50;;
6667;SDS011;3370;47.712;9.082;2023-04-15T15:45:14;6.28;;;2.38;;
6667;SDS011;3370;47.712;9.082;2023-04-15T15:47:40;3.78;;;2.47;;
6667;SDS011;3370;47.712;9.082;2023-04-15T15:50:09;2.95;;;2.33;;
6667;SDS011;3370;47.712;9.082;2023-04-15T15:52:37;5.47;;;2.10;;
6667;SDS011;3370;47.712;9.082;2023-04-15T15:55:03;2.90;;;2.03;;